Time;durP1;ratioP1;P1;durP2;ratioP2;P2;SDS_P1;SDS_P2;PMS_P1;PMS_P2;Temp;Humidity;BMP_temperature;BMP_pressure;BME280_temperature;BME280_humidity;BME280_pressure;Samples;Min_cycle;Max_cycle;Signal;HPM_P1;HPM_P2
2023/09/26 00:02:20;;;;;;;4.30;2.53;;;;;;;;;;5033778;28;20021;-63
2023/09/26 00:04:47;;;;;;;3.83;2.00;;;;;;;;;;5020818;28;20116;-62
2023/09/26 00:07:13;;;;;;;3.75;2.38;;;;;;;;;;5024738;28;20030;-62
2023/09/26 00:09:39;;;;;;;3.65;2.00;;;;;;;;;;5033594;28;20075;-64
2023/09/26 00:12:05;;;;;;;4.75;2.35;;;;;;;;;;5032413;28;20018;-62
2023/09/26 00:14:31;;;;;;;3.28;2.15;;;;;;;;;;5033775;28;20049;-62
2023/09/26 00:16:58;;;;;;;5.75;2.08;;;;;;;;;;5015413;28;20379;-62
2023/09/26 00:19:24;;;;;;;3.70;2.42;;;;;;;;;;5033574;28;20029;-62
2023/09/26 00:21:50;;;;;;;2.97;2.22;;;;;;;;;;5033224;28;20411;-62
2023/09/26 00:24:16;;;;;;;3.00;2.58;;;;;;;;;;5033267;28;20032;-62
2023/09/26 00:26:42;;;;;;;5.78;2.60;;;;;;;;;;5033318;28;20045;-65
2023/09/26 00:29:09;;;;;;;4.18;2.08;;;;;;;;;;5030381;28;20463;-62
2023/09/26 00:31:35;;;;;;;4.65;2.20;;;;;;;;;;5028878;28;20076;-63
2023/09/26 00:34:01;;;;;;;2.60;2.05;;;;;;;;;;5033392;28;20025;-63
2023/09/26 00:36:27;;;;;;;3.30;1.73;;;;;;;;;;5032016;28;20025;-63
2023/09/26 00:38:53;;;;;;;3.00;2.10;;;;;;;;;;5015360;28;20116;-63
2023/09/26 00:41:19;;;;;;;3.08;2.08;;;;;;;;;;5025827;28;20446;-63
2023/09/26 00:43:45;;;;;;;4.13;2.25;;;;;;;;;;5015206;28;20029;-63
2023/09/26 00:46:12;;;;;;;3.28;2.00;;;;;;;;;;5033127;28;20391;-62
2023/09/26 00:48:39;;;;;;;4.10;2.10;;;;;;;;;;5032718;28;20052;-62
2023/09/26 00:51:05;;;;;;;2.90;2.35;;;;;;;;;;5015547;28;20120;-63
2023/09/26 00:53:32;;;;;;;3.00;2.20;;;;;;;;;;5032683;28;20137;-63
2023/09/26 00:55:59;;;;;;;4.65;2.40;;;;;;;;;;5032797;28;20025;-62
2023/09/26 00:58:25;;;;;;;2.47;2.17;;;;;;;;;;5032924;28;20026;-62
2023/09/26 01:00:55;;;;;;;2.75;2.22;;;;;;;;;;5032893;28;20025;-62
2023/09/26 01:03:21;;;;;;;4.57;2.20;;;;;;;;;;5032234;28;20379;-63
2023/09/26 01:05:47;;;;;;;4.32;2.50;;;;;;;;;;5031528;28;20037;-63
2023/09/26 01:08:14;;;;;;;3.72;2.08;;;;;;;;;;5018049;28;20083;-63
2023/09/26 01:10:40;;;;;;;2.60;1.88;;;;;;;;;;5031742;28;20033;-63
2023/09/26 01:13:06;;;;;;;2.35;2.13;;;;;;;;;;5031582;28;20025;-63
2023/09/26 01:15:36;;;;;;;3.03;2.30;;;;;;;;;;5031107;28;20432;-63
2023/09/26 01:18:03;;;;;;;4.68;2.83;;;;;;;;;;5031071;28;20033;-63
2023/09/26 01:20:29;;;;;;;3.05;2.10;;;;;;;;;;5030720;28;20033;-62
2023/09/26 01:22:56;;;;;;;3.95;2.60;;;;;;;;;;5013170;28;20036;-62
2023/09/26 01:25:23;;;;;;;6.00;2.60;;;;;;;;;;5030916;28;20045;-62
2023/09/26 01:27:49;;;;;;;5.57;2.78;;;;;;;;;;5031077;28;20099;-62
2023/09/26 01:30:16;;;;;;;2.85;2.28;;;;;;;;;;5029745;28;20471;-62
2023/09/26 01:32:42;;;;;;;5.85;2.45;;;;;;;;;;5029363;28;20408;-62
2023/09/26 01:35:08;;;;;;;4.43;2.45;;;;;;;;;;5017083;28;20104;-62
2023/09/26 01:37:34;;;;;;;4.95;2.20;;;;;;;;;;5028493;28;20096;-63
2023/09/26 01:40:00;;;;;;;2.97;2.35;;;;;;;;;;5028887;28;20053;-62
2023/09/26 01:42:27;;;;;;;3.05;2.22;;;;;;;;;;5029358;28;20032;-63
2023/09/26 01:44:53;;;;;;;3.70;2.85;;;;;;;;;;5031061;28;20519;-62
2023/09/26 01:47:25;;;;;;;4.22;2.67;;;;;;;;;;5031151;28;20116;-62
2023/09/26 01:49:51;;;;;;;5.57;2.47;;;;;;;;;;5017864;28;20025;-62
2023/09/26 01:52:17;;;;;;;2.88;2.22;;;;;;;;;;5031171;28;20097;-63
2023/09/26 01:54:43;;;;;;;2.55;2.10;;;;;;;;;;5031499;28;20026;-62
2023/09/26 01:57:09;;;;;;;7.75;2.08;;;;;;;;;;5020564;28;20021;-62
2023/09/26 01:59:35;;;;;;;3.50;2.13;;;;;;;;;;5031867;28;20455;-62
2023/09/26 02:02:04;;;;;;;3.75;2.47;;;;;;;;;;5031811;28;20049;-62
2023/09/26 02:04:30;;;;;;;4.15;2.47;;;;;;;;;;5031476;28;20021;-62
2023/09/26 02:06:56;;;;;;;3.97;2.38;;;;;;;;;;5031608;28;20029;-62
2023/09/26 02:09:24;;;;;;;3.25;2.33;;;;;;;;;;5031536;28;20044;-63
2023/09/26 02:11:50;;;;;;;5.28;2.33;;;;;;;;;;5013767;28;20036;-63
2023/09/26 02:14:16;;;;;;;5.60;2.70;;;;;;;;;;5031325;28;20014;-63
2023/09/26 02:16:42;;;;;;;3.83;2.58;;;;;;;;;;5030710;28;20492;-63
2023/09/26 02:19:09;;;;;;;3.60;1.95;;;;;;;;;;5046585;28;20091;-63
2023/09/26 02:21:35;;;;;;;4.78;2.50;;;;;;;;;;5031332;28;20572;-63
2023/09/26 02:24:01;;;;;;;4.20;2.65;;;;;;;;;;5031361;28;20030;-63
2023/09/26 02:26:27;;;;;;;3.53;2.40;;;;;;;;;;5031401;28;20087;-63
2023/09/26 02:28:53;;;;;;;3.42;2.63;;;;;;;;;;5031671;28;20021;-63
2023/09/26 02:31:19;;;;;;;5.85;2.38;;;;;;;;;;5031565;28;20073;-63
2023/09/26 02:33:45;;;;;;;3.70;2.50;;;;;;;;;;5013932;28;20030;-63
2023/09/26 02:36:11;;;;;;;5.20;2.40;;;;;;;;;;5035207;28;20037;-64
2023/09/26 02:38:37;;;;;;;4.07;2.67;;;;;;;;;;5035669;28;20033;-63
2023/09/26 02:41:03;;;;;;;3.55;2.08;;;;;;;;;;5035421;28;20029;-63
2023/09/26 02:43:29;;;;;;;3.78;2.22;;;;;;;;;;5034595;28;20418;-63
2023/09/26 02:45:55;;;;;;;4.55;1.90;;;;;;;;;;5034772;28;20034;-63
2023/09/26 02:48:21;;;;;;;3.28;2.10;;;;;;;;;;5034545;28;20032;-63
2023/09/26 02:50:47;;;;;;;3.20;2.28;;;;;;;;;;5034873;28;20033;-64
2023/09/26 02:53:13;;;;;;;3.38;1.88;;;;;;;;;;5034330;28;20036;-63
2023/09/26 02:55:40;;;;;;;3.38;2.00;;;;;;;;;;5034428;28;20025;-63
2023/09/26 02:58:06;;;;;;;2.75;2.28;;;;;;;;;;5034421;28;20463;-64
2023/09/26 03:00:32;;;;;;;3.25;1.92;;;;;;;;;;5034840;28;20105;-63
2023/09/26 03:02:58;;;;;;;2.72;1.85;;;;;;;;;;5033666;28;20030;-63
2023/09/26 03:05:25;;;;;;;2.80;1.65;;;;;;;;;;5033467;28;20049;-63
2023/09/26 03:07:51;;;;;;;2.05;1.58;;;;;;;;;;5034236;28;20079;-63
2023/09/26 03:10:17;;;;;;;2.25;1.90;;;;;;;;;;5033531;28;20125;-63
2023/09/26 03:12:44;;;;;;;5.15;2.00;;;;;;;;;;5026831;28;20022;-63
2023/09/26 03:15:11;;;;;;;4.03;2.20;;;;;;;;;;5029431;28;20426;-63
2023/09/26 03:17:37;;;;;;;2.85;1.75;;;;;;;;;;5034009;28;20033;-63
2023/09/26 03:20:08;;;;;;;3.40;1.70;;;;;;;;;;5034084;28;20120;-63
2023/09/26 03:22:34;;;;;;;3.50;2.20;;;;;;;;;;5033705;28;20052;-63
2023/09/26 03:25:00;;;;;;;3.53;2.00;;;;;;;;;;5029823;28;20037;-63
2023/09/26 03:27:26;;;;;;;5.50;2.20;;;;;;;;;;5029749;28;20036;-63
2023/09/26 03:29:52;;;;;;;5.75;2.28;;;;;;;;;;5034016;28;20033;-62
2023/09/26 03:32:18;;;;;;;4.35;2.40;;;;;;;;;;5034357;28;20030;-63
2023/09/26 03:34:44;;;;;;;5.60;2.22;;;;;;;;;;5034071;28;20037;-63
2023/09/26 03:37:10;;;;;;;4.72;2.47;;;;;;;;;;5015640;28;20029;-63
2023/09/26 03:39:36;;;;;;;5.78;2.30;;;;;;;;;;5033425;28;20370;-62
2023/09/26 03:42:02;;;;;;;4.80;2.58;;;;;;;;;;5033933;28;20026;-63
2023/09/26 03:44:28;;;;;;;3.85;2.10;;;;;;;;;;5033616;28;20018;-63
2023/09/26 03:46:54;;;;;;;3.83;2.40;;;;;;;;;;5015520;28;20440;-63
2023/09/26 03:49:27;;;;;;;4.30;2.70;;;;;;;;;;5028946;28;20103;-63
2023/09/26 03:51:53;;;;;;;4.43;2.80;;;;;;;;;;5012009;28;20049;-63
2023/09/26 03:54:19;;;;;;;4.47;2.13;;;;;;;;;;5033479;28;20080;-63
2023/09/26 03:56:45;;;;;;;3.78;2.05;;;;;;;;;;5033408;28;20072;-64
2023/09/26 03:59:12;;;;;;;4.22;2.00;;;;;;;;;;5032826;28;20041;-63
2023/09/26 04:01:38;;;;;;;6.10;2.63;;;;;;;;;;5029644;28;20026;-64
2023/09/26 04:04:04;;;;;;;3.20;2.45;;;;;;;;;;5033204;28;20028;-63
2023/09/26 04:06:32;;;;;;;3.83;2.28;;;;;;;;;;5033048;28;20498;-63
2023/09/26 04:08:58;;;;;;;6.28;2.78;;;;;;;;;;5033018;28;20076;-63
2023/09/26 04:11:24;;;;;;;5.07;2.83;;;;;;;;;;5032901;28;20052;-64
2023/09/26 04:13:50;;;;;;;4.50;2.22;;;;;;;;;;5033148;28;20024;-64
2023/09/26 04:16:16;;;;;;;5.18;2.65;;;;;;;;;;5032951;28;20110;-63
2023/09/26 04:18:45;;;;;;;6.30;2.05;;;;;;;;;;5028109;28;20078;-63
2023/09/26 04:21:11;;;;;;;4.93;2.90;;;;;;;;;;5032437;28;20426;-63
2023/09/26 04:23:37;;;;;;;5.30;2.60;;;;;;;;;;5032621;28;20034;-64
2023/09/26 04:26:13;;;;;;;4.85;2.50;;;;;;;;;;5032376;28;20037;-63
2023/09/26 04:28:39;;;;;;;4.40;2.83;;;;;;;;;;5032343;28;20035;-64
2023/09/26 04:31:05;;;;;;;4.95;2.75;;;;;;;;;;5033117;28;20476;-64
2023/09/26 04:33:31;;;;;;;6.28;2.50;;;;;;;;;;5033129;28;20033;-64
2023/09/26 04:35:57;;;;;;;5.05;2.30;;;;;;;;;;5032966;28;20030;-64
2023/09/26 04:38:24;;;;;;;5.25;2.70;;;;;;;;;;5033198;28;20388;-63
2023/09/26 04:40:50;;;;;;;6.35;3.08;;;;;;;;;;5032886;28;20534;-64
2023/09/26 04:43:16;;;;;;;4.07;2.75;;;;;;;;;;5032911;28;20053;-64
2023/09/26 04:45:42;;;;;;;4.75;2.78;;;;;;;;;;5032646;28;20059;-64
2023/09/26 04:48:08;;;;;;;5.50;3.08;;;;;;;;;;5033181;28;20026;-64
2023/09/26 04:50:34;;;;;;;6.20;3.63;;;;;;;;;;5014760;28;20034;-64
2023/09/26 04:53:00;;;;;;;7.20;3.20;;;;;;;;;;5032756;28;20032;-64
2023/09/26 04:55:27;;;;;;;6.32;2.90;;;;;;;;;;5032805;28;20033;-63
2023/09/26 04:57:53;;;;;;;11.35;3.15;;;;;;;;;;5031837;28;20017;-64
2023/09/26 05:00:19;;;;;;;4.18;3.05;;;;;;;;;;5032594;28;20105;-64
2023/09/26 05:02:46;;;;;;;4.60;3.10;;;;;;;;;;5031055;28;20537;-64
2023/09/26 05:05:13;;;;;;;5.20;2.97;;;;;;;;;;5031910;28;20491;-64
2023/09/26 05:07:43;;;;;;;5.80;2.88;;;;;;;;;;5032109;28;20021;-64
2023/09/26 05:10:09;;;;;;;5.80;3.25;;;;;;;;;;5031273;28;20058;-63
2023/09/26 05:12:40;;;;;;;4.32;2.30;;;;;;;;;;5031439;28;20029;-67
2023/09/26 05:15:13;;;;;;;7.30;2.88;;;;;;;;;;5012458;28;20048;-67
2023/09/26 05:17:50;;;;;;;8.23;3.88;;;;;;;;;;5030775;28;20025;-67
2023/09/26 05:20:16;;;;;;;6.03;2.80;;;;;;;;;;5021912;28;20033;-67
2023/09/26 05:22:43;;;;;;;4.78;2.42;;;;;;;;;;5031067;28;20045;-64
2023/09/26 05:25:10;;;;;;;7.15;4.28;;;;;;;;;;5029658;28;20039;-65
2023/09/26 05:27:37;;;;;;;8.40;3.17;;;;;;;;;;5032006;28;20043;-63
2023/09/26 05:30:03;;;;;;;7.75;3.10;;;;;;;;;;5030456;28;20029;-64
2023/09/26 05:32:29;;;;;;;5.65;3.08;;;;;;;;;;5031325;28;20456;-65
2023/09/26 05:34:55;;;;;;;9.40;3.17;;;;;;;;;;5027240;28;20052;-65
2023/09/26 05:37:21;;;;;;;3.78;2.70;;;;;;;;;;5015524;28;20029;-66
2023/09/26 05:39:48;;;;;;;4.22;2.55;;;;;;;;;;5031570;28;20482;-65
2023/09/26 05:42:14;;;;;;;7.38;2.80;;;;;;;;;;5031423;28;20452;-65
2023/09/26 05:44:40;;;;;;;5.68;3.00;;;;;;;;;;5031304;28;20067;-65
2023/09/26 05:47:06;;;;;;;5.85;3.10;;;;;;;;;;5032001;28;20029;-65
2023/09/26 05:49:32;;;;;;;3.88;2.90;;;;;;;;;;5030862;28;20027;-65
2023/09/26 05:51:58;;;;;;;8.05;2.55;;;;;;;;;;5030695;28;20033;-65
2023/09/26 05:54:24;;;;;;;3.35;2.58;;;;;;;;;;5030469;28;20033;-65
2023/09/26 05:56:50;;;;;;;8.13;3.33;;;;;;;;;;5027395;28;20025;-66
2023/09/26 05:59:16;;;;;;;4.70;2.60;;;;;;;;;;5026782;28;20025;-66
2023/09/26 06:01:42;;;;;;;5.80;2.60;;;;;;;;;;5028939;28;20021;-65
2023/09/26 06:04:08;;;;;;;5.28;2.90;;;;;;;;;;5027651;28;20033;-65
2023/09/26 06:06:34;;;;;;;8.30;2.80;;;;;;;;;;5027865;28;20030;-66
2023/09/26 06:09:00;;;;;;;3.78;2.42;;;;;;;;;;5029731;28;20013;-65
2023/09/26 06:11:26;;;;;;;5.28;2.85;;;;;;;;;;5032489;28;20025;-65
2023/09/26 06:13:55;;;;;;;4.10;2.80;;;;;;;;;;5033941;28;20044;-63
2023/09/26 06:16:22;;;;;;;5.47;3.35;;;;;;;;;;5035020;28;20426;-63
2023/09/26 06:18:48;;;;;;;5.68;3.17;;;;;;;;;;5033804;28;20029;-67
2023/09/26 06:21:14;;;;;;;5.45;3.05;;;;;;;;;;5034167;28;20546;-68
2023/09/26 06:23:43;;;;;;;7.75;3.03;;;;;;;;;;5034604;28;20461;-68
2023/09/26 06:26:09;;;;;;;6.22;3.30;;;;;;;;;;5034716;28;20041;-67
2023/09/26 06:28:36;;;;;;;5.10;3.22;;;;;;;;;;5016407;28;20083;-67
2023/09/26 06:31:08;;;;;;;11.63;3.13;;;;;;;;;;5034462;28;20488;-67
2023/09/26 06:33:35;;;;;;;9.70;3.53;;;;;;;;;;5035160;28;20040;-67
2023/09/26 06:36:01;;;;;;;7.70;3.47;;;;;;;;;;5028185;28;20112;-67
2023/09/26 06:38:28;;;;;;;8.95;3.75;;;;;;;;;;5034156;28;20100;-67
2023/09/26 06:41:04;;;;;;;13.35;4.28;;;;;;;;;;5035232;28;20034;-67
2023/09/26 06:43:30;;;;;;;11.73;5.05;;;;;;;;;;5034548;28;20033;-67
2023/09/26 06:45:57;;;;;;;6.85;3.65;;;;;;;;;;5034759;28;20108;-67
2023/09/26 06:48:23;;;;;;;6.25;3.97;;;;;;;;;;5035219;28;20082;-67
2023/09/26 06:50:49;;;;;;;8.85;4.63;;;;;;;;;;5034990;28;20026;-67
2023/09/26 06:53:15;;;;;;;9.75;4.90;;;;;;;;;;5016437;28;20167;-67
2023/09/26 06:55:41;;;;;;;11.77;4.80;;;;;;;;;;5034904;28;20057;-67
2023/09/26 06:58:07;;;;;;;9.38;3.78;;;;;;;;;;5014807;28;20034;-67
2023/09/26 07:00:33;;;;;;;9.00;3.80;;;;;;;;;;5035155;28;20028;-67
2023/09/26 07:02:59;;;;;;;7.57;3.60;;;;;;;;;;5034980;28;20083;-67
2023/09/26 07:05:28;;;;;;;11.20;4.20;;;;;;;;;;5034477;28;20041;-67
2023/09/26 07:07:54;;;;;;;7.13;4.30;;;;;;;;;;5032907;28;20369;-67
2023/09/26 07:10:22;;;;;;;10.98;4.18;;;;;;;;;;5034291;28;20033;-67
2023/09/26 07:12:48;;;;;;;13.05;5.40;;;;;;;;;;5030351;28;20498;-66
2023/09/26 07:15:14;;;;;;;6.75;3.90;;;;;;;;;;5034510;28;20021;-67
2023/09/26 07:17:40;;;;;;;6.50;3.45;;;;;;;;;;5016632;28;20075;-66
2023/09/26 07:20:13;;;;;;;9.38;4.07;;;;;;;;;;5033768;28;20033;-67
2023/09/26 07:22:39;;;;;;;8.68;3.63;;;;;;;;;;5033607;28;20124;-67
2023/09/26 07:25:05;;;;;;;8.35;3.72;;;;;;;;;;5034202;28;20037;-67
2023/09/26 07:27:31;;;;;;;6.57;3.28;;;;;;;;;;5015460;28;20033;-61
2023/09/26 07:29:57;;;;;;;9.70;4.25;;;;;;;;;;5031192;28;20034;-67
2023/09/26 07:32:23;;;;;;;9.38;4.28;;;;;;;;;;5031839;28;20086;-67
2023/09/26 07:34:49;;;;;;;9.07;2.60;;;;;;;;;;5035353;28;20108;-72
2023/09/26 07:37:15;;;;;;;3.95;3.10;;;;;;;;;;5035816;28;20036;-64
2023/09/26 07:39:44;;;;;;;6.45;3.22;;;;;;;;;;5033029;28;20028;-62
2023/09/26 07:42:10;;;;;;;6.47;2.90;;;;;;;;;;5033234;28;20824;-60
2023/09/26 07:44:36;;;;;;;8.45;3.45;;;;;;;;;;5033526;28;20048;-61
2023/09/26 07:47:02;;;;;;;8.88;3.53;;;;;;;;;;5032858;28;20085;-61
2023/09/26 07:49:28;;;;;;;7.97;3.85;;;;;;;;;;5033669;28;20033;-59
2023/09/26 07:51:54;;;;;;;8.95;3.10;;;;;;;;;;5033568;28;20128;-60
2023/09/26 07:54:20;;;;;;;5.57;3.20;;;;;;;;;;5033442;28;20049;-59
2023/09/26 07:56:46;;;;;;;11.68;3.15;;;;;;;;;;5026356;28;20511;-59
2023/09/26 07:59:12;;;;;;;7.20;2.83;;;;;;;;;;5033823;28;20022;-60
2023/09/26 08:01:39;;;;;;;6.05;2.67;;;;;;;;;;5031940;28;20464;-59
2023/09/26 08:04:07;;;;;;;6.32;2.80;;;;;;;;;;5034112;28;20483;-59
2023/09/26 08:06:33;;;;;;;5.80;2.67;;;;;;;;;;5033516;28;20061;-61
2023/09/26 08:08:59;;;;;;;6.88;3.30;;;;;;;;;;5015841;28;20025;-65
2023/09/26 08:11:27;;;;;;;4.85;2.92;;;;;;;;;;5041989;28;20033;-71
2023/09/26 08:13:54;;;;;;;6.35;3.90;;;;;;;;;;5033289;28;20100;-67
2023/09/26 08:16:21;;;;;;;5.18;3.45;;;;;;;;;;5034220;28;20033;-63
2023/09/26 08:18:49;;;;;;;7.30;3.50;;;;;;;;;;5033460;28;20059;-68
2023/09/26 08:21:15;;;;;;;7.57;3.58;;;;;;;;;;5028773;28;20071;-71
2023/09/26 08:23:41;;;;;;;6.72;3.45;;;;;;;;;;5013948;28;20024;-72
2023/09/26 08:26:11;;;;;;;4.50;3.17;;;;;;;;;;5015754;28;20037;-76
2023/09/26 08:28:38;;;;;;;6.38;3.50;;;;;;;;;;5031439;28;20049;-66
2023/09/26 08:31:05;;;;;;;6.70;2.97;;;;;;;;;;5032190;28;20026;-65
2023/09/26 08:36:35;;;;;;;7.10;2.67;;;;;;;;;;5022235;28;20047;-60
2023/09/26 08:39:01;;;;;;;5.00;2.80;;;;;;;;;;5028783;28;20434;-67
2023/09/26 08:41:28;;;;;;;5.32;2.78;;;;;;;;;;5030831;28;20037;-62
2023/09/26 08:43:54;;;;;;;5.43;3.08;;;;;;;;;;5033233;28;20251;-65
2023/09/26 08:46:20;;;;;;;6.32;2.97;;;;;;;;;;5032534;28;20041;-65
2023/09/26 08:48:46;;;;;;;8.77;2.97;;;;;;;;;;5024785;28;20026;-62
2023/09/26 08:51:13;;;;;;;3.88;2.33;;;;;;;;;;5025394;28;20034;-61
2023/09/26 08:53:39;;;;;;;5.38;2.58;;;;;;;;;;5018444;28;20026;-59
2023/09/26 08:56:05;;;;;;;5.45;2.35;;;;;;;;;;5030594;28;20448;-60
2023/09/26 08:58:32;;;;;;;4.90;2.50;;;;;;;;;;5030256;28;20029;-60
2023/09/26 09:00:58;;;;;;;6.00;2.15;;;;;;;;;;5030745;28;20075;-60
2023/09/26 09:03:24;;;;;;;5.90;3.15;;;;;;;;;;5030078;28;20023;-72
2023/09/26 09:05:50;;;;;;;4.95;2.53;;;;;;;;;;5033958;28;20033;-73
2023/09/26 09:08:18;;;;;;;3.15;2.42;;;;;;;;;;5032985;28;20026;-65
2023/09/26 09:10:57;;;;;;;10.05;2.70;;;;;;;;;;5032002;28;20033;-75
2023/09/26 09:13:27;;;;;;;6.88;2.65;;;;;;;;;;5030906;28;20498;-73
2023/09/26 09:16:07;;;;;;;4.95;2.83;;;;;;;;;;5032866;28;20144;-74
2023/09/26 09:18:33;;;;;;;7.95;2.95;;;;;;;;;;5014467;28;20030;-74
2023/09/26 09:20:59;;;;;;;6.10;2.97;;;;;;;;;;5032809;28;20092;-75
2023/09/26 09:23:25;;;;;;;10.88;3.95;;;;;;;;;;5032068;28;20422;-74
2023/09/26 09:25:51;;;;;;;10.65;3.47;;;;;;;;;;5032245;28;20514;-73
2023/09/26 09:28:21;;;;;;;7.38;4.18;;;;;;;;;;5031946;28;20432;-73
2023/09/26 09:30:47;;;;;;;7.05;3.63;;;;;;;;;;5031213;28;20097;-72
2023/09/26 09:33:16;;;;;;;7.32;3.67;;;;;;;;;;5029010;28;20064;-71
2023/09/26 09:35:42;;;;;;;7.47;3.92;;;;;;;;;;5031923;28;20018;-65
2023/09/26 09:38:12;;;;;;;10.75;3.42;;;;;;;;;;5031968;28;20052;-68
2023/09/26 09:40:39;;;;;;;5.82;3.17;;;;;;;;;;5031618;28;20361;-69
2023/09/26 09:43:05;;;;;;;6.28;4.40;;;;;;;;;;5030470;28;20049;-70
2023/09/26 09:45:34;;;;;;;5.95;3.40;;;;;;;;;;5030516;28;20376;-69
2023/09/26 09:48:02;;;;;;;7.03;3.75;;;;;;;;;;5031229;28;20120;-76
2023/09/26 09:50:28;;;;;;;6.75;3.80;;;;;;;;;;5033127;28;20032;-70
2023/09/26 09:52:56;;;;;;;5.60;3.70;;;;;;;;;;5030871;28;20112;-65
2023/09/26 09:55:29;;;;;;;7.15;3.60;;;;;;;;;;5028882;28;20034;-64
2023/09/26 09:57:56;;;;;;;8.77;4.15;;;;;;;;;;5025484;28;20018;-60
2023/09/26 10:00:25;;;;;;;8.13;4.00;;;;;;;;;;5028985;28;20391;-60
2023/09/26 10:03:00;;;;;;;6.28;3.20;;;;;;;;;;5023366;28;20121;-64
2023/09/26 10:05:28;;;;;;;7.47;3.85;;;;;;;;;;5030316;28;20128;-56
2023/09/26 10:07:55;;;;;;;5.55;4.03;;;;;;;;;;5033698;28;20079;-55
2023/09/26 10:10:22;;;;;;;6.32;4.07;;;;;;;;;;5031239;28;20083;-52
2023/09/26 10:12:48;;;;;;;5.72;4.28;;;;;;;;;;5029869;28;20029;-60
2023/09/26 10:15:16;;;;;;;5.70;3.67;;;;;;;;;;5031690;28;20407;-60
2023/09/26 10:17:42;;;;;;;6.72;3.80;;;;;;;;;;5030402;28;20029;-59
2023/09/26 10:20:12;;;;;;;6.00;4.22;;;;;;;;;;5026142;28;20354;-58
2023/09/26 10:22:43;;;;;;;6.70;3.83;;;;;;;;;;5027315;28;20068;-55
2023/09/26 10:25:15;;;;;;;5.63;4.38;;;;;;;;;;5029980;28;20029;-59
2023/09/26 10:27:43;;;;;;;6.35;3.63;;;;;;;;;;5028210;28;20025;-61
2023/09/26 10:30:13;;;;;;;4.35;3.47;;;;;;;;;;5033635;28;20014;-59
2023/09/26 10:32:43;;;;;;;5.57;4.00;;;;;;;;;;5030873;28;20529;-59
2023/09/26 10:35:15;;;;;;;5.78;3.95;;;;;;;;;;5031136;28;20087;-59
2023/09/26 10:37:49;;;;;;;6.10;3.30;;;;;;;;;;5011111;28;20163;-61
2023/09/26 10:40:19;;;;;;;5.85;4.15;;;;;;;;;;5029225;28;20052;-61
2023/09/26 10:42:46;;;;;;;8.38;4.35;;;;;;;;;;5031220;28;20361;-60
2023/09/26 10:45:13;;;;;;;7.32;3.92;;;;;;;;;;5030325;28;20118;-68
2023/09/26 10:47:40;;;;;;;7.22;4.10;;;;;;;;;;5031331;28;20122;-67
2023/09/26 10:50:08;;;;;;;7.07;4.18;;;;;;;;;;5031172;28;20375;-67
2023/09/26 10:52:34;;;;;;;7.28;4.13;;;;;;;;;;5031332;28;20068;-67
2023/09/26 10:55:00;;;;;;;7.88;5.43;;;;;;;;;;5031991;28;20029;-68
2023/09/26 10:57:26;;;;;;;6.97;4.95;;;;;;;;;;5029552;28;20100;-68
2023/09/26 10:59:54;;;;;;;6.45;4.50;;;;;;;;;;5034124;28;20111;-68
2023/09/26 11:02:21;;;;;;;7.75;4.45;;;;;;;;;;5034763;28;20016;-68
2023/09/26 11:04:47;;;;;;;8.20;5.40;;;;;;;;;;5034947;28;20029;-68
2023/09/26 11:07:14;;;;;;;7.32;4.72;;;;;;;;;;5016789;28;20045;-68
2023/09/26 11:09:41;;;;;;;6.97;4.80;;;;;;;;;;5032633;28;20029;-68
2023/09/26 11:12:08;;;;;;;6.57;4.03;;;;;;;;;;5015425;28;20112;-68
2023/09/26 11:14:34;;;;;;;11.77;7.75;;;;;;;;;;5015262;28;20018;-68
2023/09/26 11:17:00;;;;;;;10.50;6.22;;;;;;;;;;5030952;28;20434;-68
2023/09/26 11:19:29;;;;;;;8.63;4.32;;;;;;;;;;5034850;28;20036;-68
2023/09/26 11:21:55;;;;;;;12.93;6.97;;;;;;;;;;5034454;28;20474;-68
2023/09/26 11:24:25;;;;;;;9.32;6.35;;;;;;;;;;5034734;28;20030;-68
2023/09/26 11:26:53;;;;;;;11.02;5.68;;;;;;;;;;5034823;28;20037;-68
2023/09/26 11:29:19;;;;;;;7.32;5.97;;;;;;;;;;5048168;28;20045;-68
2023/09/26 11:31:45;;;;;;;7.03;5.63;;;;;;;;;;5016750;28;20128;-68
2023/09/26 11:34:11;;;;;;;7.68;5.22;;;;;;;;;;5034393;28;20029;-68
2023/09/26 11:36:41;;;;;;;9.85;5.43;;;;;;;;;;5034440;28;20053;-68
2023/09/26 11:39:10;;;;;;;7.60;5.07;;;;;;;;;;5034503;28;20022;-68
2023/09/26 11:41:36;;;;;;;8.25;4.88;;;;;;;;;;5034195;28;20025;-68
2023/09/26 11:44:09;;;;;;;10.40;6.50;;;;;;;;;;5032753;28;20028;-68
2023/09/26 11:46:49;;;;;;;5.60;4.35;;;;;;;;;;5034166;28;20083;-67
2023/09/26 11:49:17;;;;;;;7.40;5.65;;;;;;;;;;5033711;28;20101;-67
2023/09/26 11:51:43;;;;;;;11.02;6.60;;;;;;;;;;5049264;28;20025;-66
2023/09/26 11:54:09;;;;;;;6.50;5.53;;;;;;;;;;5034396;28;20519;-67
2023/09/26 11:56:36;;;;;;;8.52;6.72;;;;;;;;;;5034000;28;20041;-66
2023/09/26 11:59:05;;;;;;;9.45;6.47;;;;;;;;;;5033488;28;20101;-66
2023/09/26 12:01:32;;;;;;;9.00;6.15;;;;;;;;;;5033943;28;20425;-66
2023/09/26 12:04:03;;;;;;;6.20;5.35;;;;;;;;;;5031801;28;20048;-66
2023/09/26 12:06:29;;;;;;;5.68;4.35;;;;;;;;;;5033736;28;20033;-66
2023/09/26 12:08:55;;;;;;;6.88;5.15;;;;;;;;;;5031380;28;20026;-67
2023/09/26 12:11:21;;;;;;;6.40;5.75;;;;;;;;;;5033316;28;20052;-66
2023/09/26 12:13:47;;;;;;;5.30;4.68;;;;;;;;;;5031911;28;20088;-66
2023/09/26 12:16:13;;;;;;;8.40;5.63;;;;;;;;;;5033397;28;20073;-67
2023/09/26 12:18:39;;;;;;;7.22;5.18;;;;;;;;;;5033436;28;20034;-67
2023/09/26 12:21:05;;;;;;;11.65;6.50;;;;;;;;;;5031539;28;20060;-67
2023/09/26 12:23:31;;;;;;;11.93;7.05;;;;;;;;;;5031710;28;20108;-67
2023/09/26 12:25:57;;;;;;;6.97;5.32;;;;;;;;;;5030833;28;20037;-67
2023/09/26 12:28:23;;;;;;;5.40;4.15;;;35.90;99.90;;;;;;5030834;28;20033;-67
2023/09/26 12:30:50;;;;;;;6.20;5.00;;;39.70;99.90;;;;;;5031063;28;20029;-67
2023/09/26 12:33:15;;;;;;;8.93;5.15;;;39.50;99.90;;;;;;5012625;28;20029;-67
2023/09/26 12:35:42;;;;;;;7.50;4.93;;;;;;;;;;5030769;28;20025;-64
2023/09/26 12:38:08;;;;;;;7.05;4.93;;;;;;;;;;5032268;28;20029;-66
2023/09/26 12:40:33;;;;;;;9.48;4.53;;;;;;;;;;5033759;28;20103;-66
2023/09/26 12:42:59;;;;;;;5.20;4.53;;;;;;;;;;5032110;28;20092;-67
2023/09/26 12:45:26;;;;;;;7.68;4.80;;;;;;;;;;5013393;28;20438;-67
2023/09/26 12:47:52;;;;;;;7.30;4.65;;;;;;;;;;5030323;28;20022;-65
2023/09/26 12:50:18;;;;;;;7.63;5.72;;;;;;;;;;5037312;28;20394;-66
2023/09/26 12:52:44;;;;;;;8.48;6.47;;;;;;;;;;5031450;28;20026;-65
2023/09/26 12:55:10;;;;;;;9.10;4.88;;;;;;;;;;5032867;28;20029;-65
2023/09/26 12:57:37;;;;;;;7.20;5.13;;;;;;;;;;5032421;28;20029;-66
2023/09/26 13:00:08;;;;;;;7.50;4.65;;;;;;;;;;5032687;28;20096;-66
2023/09/26 13:02:35;;;;;;;5.40;4.45;;;;;;;;;;5032909;28;20056;-75
2023/09/26 13:05:01;;;;;;;6.22;4.68;;;;;;;;;;5032546;28;20026;-70
2023/09/26 13:07:27;;;;;;;5.32;4.25;;;;;;;;;;5032925;28;20029;-74
2023/09/26 13:09:53;;;;;;;7.18;6.05;;;;;;;;;;5033449;28;20368;-74
2023/09/26 13:12:20;;;;;;;6.68;5.32;;;;;;;;;;5034910;28;20040;-76
2023/09/26 13:14:46;;;;;;;7.00;4.70;;;;;;;;;;5031562;28;20021;-67
2023/09/26 13:17:12;;;;;;;6.93;5.00;;;;;;;;;;5030458;28;20021;-67
2023/09/26 13:19:42;;;;;;;8.82;5.28;;;;;;;;;;5030148;28;20030;-67
2023/09/26 13:22:08;;;;;;;5.40;3.85;;;;;;;;;;5032222;28;20588;-67
2023/09/26 13:24:35;;;;;;;7.30;5.15;;;;;;;;;;5032506;28;20024;-67
2023/09/26 13:27:03;;;;;;;5.75;4.60;;;;;;;;;;5031470;28;20037;-63
2023/09/26 13:29:29;;;;;;;5.28;4.88;;;;;;;;;;5028617;28;20030;-65
2023/09/26 13:31:55;;;;;;;7.25;4.32;;;;;;;;;;5031320;28;20479;-67
2023/09/26 13:34:21;;;;;;;5.40;4.90;;;;;;;;;;5031849;28;20100;-58
2023/09/26 13:36:47;;;;;;;6.30;4.90;;;;;;;;;;5009777;28;20123;-58
2023/09/26 13:39:13;;;;;;;7.38;4.70;;;;;;;;;;5013219;28;20044;-58
2023/09/26 13:41:39;;;;;;;5.95;4.20;;;;;;;;;;5029600;28;20092;-58
2023/09/26 13:44:06;;;;;;;5.95;4.10;;;;;;;;;;5010376;28;20041;-69
2023/09/26 13:46:33;;;;;;;5.90;3.92;;;;;;;;;;5032547;28;20034;-68
2023/09/26 13:48:59;;;;;;;5.40;4.85;;;;;;;;;;5014696;28;20476;-66
2023/09/26 13:51:25;;;;;;;6.88;4.20;;;;;;;;;;5031793;28;20053;-68
2023/09/26 13:53:51;;;;;;;8.10;3.80;;;;;;;;;;5031425;28;20064;-61
2023/09/26 13:56:17;;;;;;;6.32;4.03;;;;;;;;;;5031362;28;20029;-60
2023/09/26 13:58:43;;;;;;;8.02;3.63;;;;;;;;;;5029847;28;20083;-60
2023/09/26 14:01:10;;;;;;;5.47;3.95;;;;;;;;;;5030050;28;20029;-70
2023/09/26 14:03:36;;;;;;;8.70;3.55;;;;;;;;;;5031401;28;20112;-60
2023/09/26 14:06:02;;;;;;;4.18;3.35;;;;;;;;;;5029867;28;20395;-61
2023/09/26 14:08:28;;;;;;;12.88;4.50;;;;;;;;;;5030997;28;20490;-62
2023/09/26 14:10:55;;;;;;;4.57;4.03;;;;;;;;;;5031391;28;20029;-60
2023/09/26 14:13:24;;;;;;;4.82;3.55;;;;;;;;;;5012735;28;20026;-60
2023/09/26 14:15:51;;;;;;;5.68;4.13;;;;;;;;;;5028714;28;20038;-63
2023/09/26 14:18:17;;;;;;;5.65;3.92;;;;;;;;;;5031000;28;20159;-66
2023/09/26 14:20:46;;;;;;;6.82;4.10;;;;;;;;;;5030640;28;20430;-64
2023/09/26 14:23:12;;;;;;;4.60;3.97;;;;;;;;;;5012885;28;20416;-64
2023/09/26 14:25:38;;;;;;;4.78;3.30;;;;;;;;;;5012846;28;20095;-63
2023/09/26 14:28:05;;;;;;;6.53;3.53;;;;;;;;;;5031144;28;20032;-61
2023/09/26 14:30:31;;;;;;;5.88;3.60;;;;;;;;;;5007312;28;20026;-63
2023/09/26 14:32:57;;;;;;;7.43;3.70;;;;;;;;;;5032122;28;20030;-67
2023/09/26 14:35:23;;;;;;;7.53;4.13;;;;;;;;;;5034770;28;20057;-67
2023/09/26 14:37:49;;;;;;;6.35;4.38;;;;;;;;;;5035698;28;20075;-63
2023/09/26 14:40:15;;;;;;;6.18;3.95;;;;;;;;;;5035083;28;20033;-64
2023/09/26 14:42:56;;;;;;;5.25;4.47;;;;;;;;;;5035708;28;20033;-68